Time;durP1;ratioP1;P1;durP2;ratioP2;P2;SDS_P1;SDS_P2;PMS_P1;PMS_P2;Temp;Humidity;BMP_temperature;BMP_pressure;BME280_temperature;BME280_humidity;BME280_pressure;Samples;Min_cycle;Max_cycle;Signal;HPM_P1;HPM_P2
2022/12/25 00:00:39;;;;;;;62.08;21.67;;;;;;;;;;4987169;28;20031;-81
2022/12/25 00:03:05;;;;;;;65.45;21.88;;;;;;;;;;4985469;28;20022;-80
2022/12/25 00:05:32;;;;;;;59.80;21.33;;;;;;;;;;4983105;28;20049;-84
2022/12/25 00:07:58;;;;;;;57.83;19.65;;;;;;;;;;4986179;28;20476;-80
2022/12/25 00:10:24;;;;;;;60.20;21.42;;;;;;;;;;4972186;28;20121;-81
2022/12/25 00:12:50;;;;;;;52.63;21.10;;;;;;;;;;4985656;28;20129;-80
2022/12/25 00:15:16;;;;;;;74.45;22.92;;;;;;;;;;4985178;28;20060;-80
2022/12/25 00:17:42;;;;;;;55.28;20.17;;;;;;;;;;4979205;28;20035;-80
2022/12/25 00:20:09;;;;;;;55.85;20.50;;;;;;;;;;4973697;28;20062;-81
2022/12/25 00:22:35;;;;;;;63.22;21.08;;;;;;;;;;4984473;28;20052;-81
2022/12/25 00:25:02;;;;;;;60.72;21.42;;;;;;;;;;4985056;28;20072;-81
2022/12/25 00:27:31;;;;;;;60.22;20.23;;;;;;;;;;4998189;28;20030;-80
2022/12/25 00:29:57;;;;;;;65.80;22.83;;;;;;;;;;5011477;28;20096;-81
2022/12/25 00:32:23;;;;;;;63.72;21.13;;;;;;;;;;5012255;28;20049;-81
2022/12/25 00:34:49;;;;;;;60.72;20.25;;;;;;;;;;5006555;28;20027;-81
2022/12/25 00:37:15;;;;;;;66.28;22.13;;;;;;;;;;5002793;28;20030;-80
2022/12/25 00:39:41;;;;;;;65.43;21.75;;;;;;;;;;5008567;28;20015;-81
2022/12/25 00:42:18;;;;;;;58.90;21.55;;;;;;;;;;4988007;28;20030;-80
2022/12/25 00:44:48;;;;;;;59.75;22.17;;;;;;;;;;5008543;28;20042;-81
2022/12/25 00:47:14;;;;;;;69.43;22.58;;;;;;;;;;5025793;28;20019;-81
2022/12/25 00:49:41;;;;;;;54.35;21.95;;;;;;;;;;4994740;28;20039;-80
2022/12/25 00:52:07;;;;;;;61.63;21.65;;;;;;;;;;4989909;28;20487;-80
2022/12/25 00:54:34;;;;;;;53.80;21.10;;;;;;;;;;4981413;28;20050;-80
2022/12/25 00:57:01;;;;;;;62.58;22.98;;;;;;;;;;4994235;28;20030;-81
2022/12/25 00:59:30;;;;;;;67.63;23.15;;;;;;;;;;4989527;28;20030;-81
2022/12/25 01:02:21;;;;;;;77.22;25.88;;;;;;;;;;4986224;28;20034;-80
2022/12/25 01:04:42;;;;;;;65.18;21.58;;;;;;;;;;4985435;28;20031;-81
2022/12/25 01:07:08;;;;;;;56.70;22.10;;;;;;;;;;4989432;28;20057;-80
2022/12/25 01:12:19;;;;;;;60.67;23.05;;;;;;;;;;4986977;28;20334;-81
2022/12/25 01:14:45;;;;;;;65.82;22.17;;;;;;;;;;4985926;28;20050;-80
2022/12/25 01:17:11;;;;;;;51.35;21.70;;;;;;;;;;4985263;28;20034;-80
2022/12/25 01:19:37;;;;;;;55.70;23.10;;;;;;;;;;4983498;28;20551;-80
2022/12/25 01:22:04;;;;;;;63.38;25.02;;;;;;;;;;5000131;28;20034;-80
2022/12/25 01:24:30;;;;;;;64.63;23.02;;;;;;;;;;4971017;28;20456;-79
2022/12/25 01:26:57;;;;;;;65.97;24.38;;;;;;;;;;4960517;28;20121;-80
2022/12/25 01:29:23;;;;;;;70.82;24.20;;;;;;;;;;4993310;28;20081;-81
2022/12/25 01:31:50;;;;;;;57.17;21.98;;;;;;;;;;5001419;28;20373;-79
2022/12/25 01:34:16;;;;;;;56.35;24.23;;;;;;;;;;4995351;28;20061;-80
2022/12/25 01:36:42;;;;;;;52.35;24.05;;;;;;;;;;4976902;28;20031;-80
2022/12/25 01:39:08;;;;;;;63.63;25.27;;;;;;;;;;4983286;28;20030;-78
2022/12/25 01:41:34;;;;;;;58.55;24.08;;;;;;;;;;4982639;28;20042;-79
2022/12/25 01:44:00;;;;;;;69.97;25.30;;;;;;;;;;5005512;28;20057;-81
2022/12/25 01:46:26;;;;;;;53.15;24.58;;;;;;;;;;4992757;28;20038;-81
2022/12/25 01:48:53;;;;;;;60.88;25.92;;;;;;;;;;4992655;28;20034;-80
2022/12/25 01:51:26;;;;;;;65.13;24.95;;;;;;;;;;4993958;28;20411;-80
2022/12/25 01:53:52;;;;;;;59.03;24.83;;;;;;;;;;5005226;28;20493;-81
2022/12/25 01:56:19;;;;;;;63.53;27.27;;;;;;;;;;4989661;28;20039;-81
2022/12/25 01:58:45;;;;;;;58.25;25.05;;;;;;;;;;4975907;28;20122;-80
2022/12/25 02:01:11;;;;;;;61.08;26.00;;;;;;;;;;4989669;28;20085;-80
2022/12/25 02:03:41;;;;;;;59.65;24.55;;;;;;;;;;4988900;28;20038;-80
2022/12/25 02:06:07;;;;;;;64.43;25.67;;;;;;;;;;4990366;28;20136;-81
2022/12/25 02:08:33;;;;;;;68.53;26.65;;;;;;;;;;4987562;28;20030;-80
2022/12/25 02:11:00;;;;;;;59.00;25.38;;;;;;;;;;4975878;28;20072;-81
2022/12/25 02:13:29;;;;;;;64.13;26.67;;;;;;;;;;5007648;28;20345;-81
2022/12/25 02:16:05;;;;;;;65.70;26.52;;;;;;;;;;4984080;28;20042;-81
2022/12/25 02:18:51;;;;;;;63.15;26.90;;;;;;;;;;4988181;28;20168;-80
2022/12/25 02:21:26;;;;;;;65.20;28.83;;;;;;;;;;4987435;28;20109;-80
2022/12/25 02:24:11;;;;;;;56.22;27.60;;;;;;;;;;4989397;28;20399;-80
2022/12/25 02:26:55;;;;;;;59.85;27.20;;;;;;;;;;4986960;28;20023;-81
2022/12/25 02:29:41;;;;;;;68.05;27.42;;;;;;;;;;4986283;28;20026;-81
2022/12/25 02:32:13;;;;;;;66.65;28.25;;;;;;;;;;4990336;28;20030;-81
2022/12/25 02:35:01;;;;;;;67.15;27.17;;;;;;;;;;4986485;28;20027;-80
2022/12/25 02:37:36;;;;;;;59.85;27.98;;;;;;;;;;4978843;28;20038;-80
2022/12/25 02:40:06;;;;;;;63.65;27.13;;;;;;;;;;4989187;28;20030;-80
2022/12/25 03:07:41;;;;;;;73.10;29.45;;;;;;;;;;4986448;28;20034;-79
2022/12/25 03:12:56;;;;;;;78.80;30.60;;;;;;;;;;4992198;28;20149;-80
2022/12/25 03:18:10;;;;;;;81.30;31.80;;;;;;;;;;4989630;28;20041;-81
2022/12/25 03:28:54;;;;;;;78.72;31.38;;;;;;;;;;4986080;28;20525;-81
2022/12/25 03:31:37;;;;;;;68.50;29.60;;;;;;;;;;4966001;28;20122;-81
2022/12/25 03:36:58;;;;;;;77.30;31.13;;;;;;;;;;4984768;28;20049;-80
2022/12/25 03:43:07;;;;;;;71.97;32.63;;;;;;;;;;4987493;28;20045;-80
2022/12/25 04:37:55;;;;;;;52.25;23.95;;;;;;;;;;4998996;28;20068;-81
2022/12/25 04:40:22;;;;;;;49.85;23.98;;;;;;;;;;4984578;28;20608;-80
2022/12/25 04:42:49;;;;;;;54.30;23.00;;;;;;;;;;4987229;28;20045;-81
2022/12/25 04:45:16;;;;;;;49.67;22.35;;;;;;;;;;4981118;28;20704;-80
2022/12/25 04:47:42;;;;;;;55.08;22.30;;;;;;;;;;4991572;28;20130;-80
2022/12/25 04:50:08;;;;;;;50.03;20.85;;;;;;;;;;4986438;28;20101;-81
2022/12/25 04:52:36;;;;;;;58.67;21.85;;;;;;;;;;4989483;28;20046;-80
2022/12/25 04:55:02;;;;;;;53.83;21.13;;;;;;;;;;4997127;28;20573;-81
2022/12/25 04:57:30;;;;;;;45.60;19.67;;;;;;;;;;4984718;28;20030;-81
2022/12/25 04:59:56;;;;;;;45.20;20.08;;;;;;;;;;4985276;28;20027;-81
2022/12/25 05:02:22;;;;;;;42.42;18.45;;;;;;;;;;4988035;28;20128;-81
2022/12/25 05:04:48;;;;;;;40.13;18.00;;;;;;;;;;4988488;28;20030;-80
2022/12/25 05:07:14;;;;;;;41.42;18.25;;;;;;;;;;4988510;28;20164;-82
2022/12/25 05:09:40;;;;;;;44.05;16.63;;;;;;;;;;4987688;28;20046;-81
2022/12/25 05:12:07;;;;;;;40.03;17.23;;;;;;;;;;5003908;28;20030;-80
2022/12/25 05:14:33;;;;;;;40.70;17.25;;;;;;;;;;4988343;28;20042;-80
2022/12/25 05:16:59;;;;;;;44.58;18.48;;;;;;;;;;4988133;28;20499;-80
2022/12/25 05:19:26;;;;;;;37.55;16.42;;;;;;;;;;4984558;28;20381;-80
2022/12/25 05:21:53;;;;;;;44.05;16.85;;;;;;;;;;4976103;28;20393;-79
2022/12/25 05:24:19;;;;;;;36.33;17.45;;;;;;;;;;4989957;28;20052;-81
2022/12/25 05:26:46;;;;;;;45.88;18.10;;;;;;;;;;4998502;28;20030;-79
2022/12/25 05:29:12;;;;;;;34.85;17.05;;;;;;;;;;4984382;28;20139;-79
2022/12/25 05:31:38;;;;;;;41.05;17.17;;;;;;;;;;4985556;28;20447;-80
2022/12/25 05:34:04;;;;;;;38.40;16.52;;;;;;;;;;4986375;28;20039;-81
2022/12/25 05:36:30;;;;;;;32.50;17.90;;;;;;;;;;5005113;28;20034;-81
2022/12/25 05:38:56;;;;;;;33.67;16.48;;;;;;;;;;4993404;28;20027;-80
2022/12/25 05:41:22;;;;;;;35.92;15.27;;;;;;;;;;4969163;28;20467;-80
2022/12/25 05:43:48;;;;;;;26.95;14.50;;;;;;;;;;5005100;28;20038;-81
2022/12/25 05:46:15;;;;;;;36.15;14.65;;;;;;;;;;4982037;28;20038;-80
2022/12/25 05:48:41;;;;;;;28.88;14.63;;;;;;;;;;4987028;28;20101;-80
2022/12/25 05:51:08;;;;;;;27.30;12.90;;;;;;;;;;4970325;28;20041;-81
2022/12/25 05:53:34;;;;;;;33.70;14.23;;;;;;;;;;4982226;28;20042;-81
2022/12/25 05:56:02;;;;;;;31.92;13.45;;;;;;;;;;4984236;28;20026;-80
2022/12/25 05:58:28;;;;;;;25.10;12.73;;;;;;;;;;4986838;28;20035;-81
2022/12/25 06:00:54;;;;;;;34.65;14.23;;;;;;;;;;4986726;28;20256;-80
2022/12/25 06:03:21;;;;;;;30.88;13.00;;;;;;;;;;4957130;28;20512;-81
2022/12/25 06:05:47;;;;;;;32.70;12.32;;;;;;;;;;4982429;28;20057;-80
2022/12/25 06:08:13;;;;;;;33.83;12.95;;;;;;;;;;5003550;28;20042;-82
2022/12/25 06:10:39;;;;;;;22.85;12.23;;;;;;;;;;4987165;28;20038;-80
2022/12/25 06:13:05;;;;;;;30.30;13.70;;;;;;;;;;5000581;28;20022;-81
2022/12/25 06:15:32;;;;;;;28.10;11.73;;;;;;;;;;4981016;28;20113;-80
2022/12/25 06:18:01;;;;;;;24.83;11.65;;;;;;;;;;4981123;28;20042;-80
2022/12/25 06:20:28;;;;;;;27.33;11.13;;;;;;;;;;4987113;28;20022;-80
2022/12/25 06:22:54;;;;;;;29.20;11.90;;;;;;;;;;4988755;28;20015;-79
2022/12/25 06:25:20;;;;;;;23.90;12.10;;;;;;;;;;4970306;28;20547;-79
2022/12/25 06:27:46;;;;;;;23.67;10.70;;;;;;;;;;4984942;28;20034;-80
2022/12/25 06:30:12;;;;;;;28.83;11.07;;;;;;;;;;4992413;28;20396;-79
2022/12/25 06:32:38;;;;;;;22.38;10.88;;;;;;;;;;4987241;28;20042;-80
2022/12/25 06:35:04;;;;;;;27.52;11.02;;;;;;;;;;4993489;28;20480;-81
2022/12/25 06:37:31;;;;;;;21.05;9.85;;;;;;;;;;4987297;28;20046;-81
2022/12/25 06:39:57;;;;;;;24.02;11.35;;;;;;;;;;5001230;28;20029;-81
2022/12/25 06:42:23;;;;;;;27.63;11.68;;;;;;;;;;4985926;28;20102;-81
2022/12/25 06:44:49;;;;;;;24.27;12.25;;;;;;;;;;4975638;28;20992;-81
2022/12/25 06:47:16;;;;;;;24.92;13.13;;;;;;;;;;5003725;28;20092;-80
2022/12/25 06:49:42;;;;;;;25.05;12.75;;;;;;;;;;4987922;28;20084;-80
2022/12/25 06:52:08;;;;;;;26.20;14.55;;;;;;;;;;4989985;28;20034;-79
2022/12/25 06:54:34;;;;;;;22.27;12.10;;;;;;;;;;4988301;28;20042;-81
2022/12/25 06:57:00;;;;;;;25.85;13.35;;;;;;;;;;5005552;28;20074;-81
2022/12/25 06:59:26;;;;;;;25.63;12.65;;;;;;;;;;4985137;28;20105;-80
2022/12/25 07:01:53;;;;;;;22.35;11.90;;;;;;;;;;4986531;28;20041;-80
2022/12/25 07:04:24;;;;;;;21.60;12.13;;;;;;;;;;5002748;28;20152;-80
2022/12/25 07:06:50;;;;;;;20.15;11.65;;;;;;;;;;4981424;28;20050;-79
2022/12/25 07:09:17;;;;;;;21.77;11.73;;;;;;;;;;4986557;28;20046;-80
2022/12/25 07:11:43;;;;;;;20.25;11.60;;;;;;;;;;4991067;28;20041;-80
2022/12/25 07:14:15;;;;;;;25.08;12.63;;;;;;;;;;4990875;28;20027;-81
2022/12/25 07:16:42;;;;;;;20.80;11.45;;;;;;;;;;4985355;28;20054;-80
2022/12/25 07:19:08;;;;;;;20.73;11.90;;;;;;;;;;5002028;28;20447;-80
2022/12/25 07:21:35;;;;;;;26.75;12.18;;;;;;;;;;4986256;28;20209;-78
2022/12/25 07:24:03;;;;;;;24.27;12.02;;;;;;;;;;4979181;28;20495;-79
2022/12/25 07:26:30;;;;;;;19.75;12.18;;;;;;;;;;4985832;28;20176;-80
2022/12/25 07:28:56;;;;;;;21.95;12.25;;;;;;;;;;5004118;28;20444;-77
2022/12/25 07:31:22;;;;;;;20.40;11.90;;;;;;;;;;4995969;28;20094;-79
2022/12/25 07:33:48;;;;;;;25.10;12.75;;;;;;;;;;4974865;28;21010;-80
2022/12/25 07:36:14;;;;;;;19.85;12.30;;;;;;;;;;4989621;28;20097;-81
2022/12/25 07:38:41;;;;;;;24.48;12.18;;;;;;;;;;5001320;28;20254;-77
2022/12/25 07:41:09;;;;;;;20.92;12.18;;;;;;;;;;4988535;28;20027;-77
2022/12/25 07:43:35;;;;;;;24.52;12.05;;;;;;;;;;5001898;28;20459;-81
2022/12/25 07:46:02;;;;;;;20.27;12.00;;;;;;;;;;4989991;28;20018;-81
2022/12/25 07:48:28;;;;;;;21.13;11.27;;;;;;;;;;4992993;28;20026;-80
2022/12/25 07:50:55;;;;;;;22.48;12.02;;;;;;;;;;4990305;28;20034;-81
2022/12/25 07:53:22;;;;;;;19.52;11.63;;;;;;;;;;4990091;28;20425;-80
2022/12/25 07:55:48;;;;;;;21.27;11.50;;;;;;;;;;4998671;28;20422;-80
2022/12/25 07:58:14;;;;;;;29.27;12.82;;;;;;;;;;4991320;28;20026;-82
2022/12/25 08:00:40;;;;;;;31.10;12.73;;;;;;;;;;5002443;28;20022;-81
2022/12/25 08:03:06;;;;;;;23.88;11.65;;;;;;;;;;4972537;28;20527;-80
2022/12/25 08:05:32;;;;;;;22.42;12.23;;;;;;;;;;4988440;28;20042;-80
2022/12/25 08:07:58;;;;;;;32.80;12.07;;;;;;;;;;4983209;28;20520;-81
2022/12/25 08:10:25;;;;;;;24.50;10.90;;;;;;;;;;4984997;28;20026;-81
2022/12/25 08:12:51;;;;;;;27.00;11.93;;;;;;;;;;4997356;28;20614;-80
2022/12/25 08:15:17;;;;;;;26.77;12.55;;;;;;;;;;4984040;28;20042;-82
2022/12/25 08:17:43;;;;;;;22.77;12.43;;;;;;;;;;4991152;28;20023;-81
2022/12/25 08:20:10;;;;;;;29.50;12.18;;;;;;;;;;4998148;28;20046;-82
2022/12/25 08:22:37;;;;;;;21.27;12.02;;;;;;;;;;4982075;28;20567;-79
2022/12/25 08:25:03;;;;;;;27.67;12.57;;;;;;;;;;4984651;28;20037;-81
2022/12/25 08:27:29;;;;;;;28.33;12.65;;;;;;;;;;4982982;28;20053;-83
2022/12/25 08:29:56;;;;;;;27.35;13.32;;;;;;;;;;4984596;28;20046;-80
2022/12/25 08:32:22;;;;;;;26.42;13.77;;;;;;;;;;4986007;28;20438;-80
2022/12/25 08:34:48;;;;;;;26.27;13.30;;;;;;;;;;4983561;28;20031;-79
2022/12/25 08:37:14;;;;;;;28.52;13.35;;;;;;;;;;4982793;28;20039;-79
2022/12/25 08:39:40;;;;;;;26.30;13.48;;;;;;;;;;4976210;28;20026;-81
2022/12/25 08:42:06;;;;;;;28.27;14.05;;;;;;;;;;4999832;28;20027;-80
2022/12/25 08:44:33;;;;;;;25.08;14.13;;;;;;;;;;4981481;28;20478;-80
2022/12/25 08:46:59;;;;;;;25.85;14.48;;;;;;;;;;4984130;28;20038;-80
2022/12/25 08:49:27;;;;;;;34.63;14.38;;;;;;;;;;4979445;28;20481;-80
2022/12/25 08:51:54;;;;;;;24.98;13.02;;;;;;;;;;4997523;28;20392;-79
2022/12/25 08:54:21;;;;;;;32.33;14.25;;;;;;;;;;4982563;28;20470;-80
2022/12/25 08:56:47;;;;;;;25.73;12.90;;;;;;;;;;4983663;28;20117;-81
2022/12/25 08:59:13;;;;;;;24.05;13.25;;;;;;;;;;4983663;28;20026;-84
2022/12/25 09:01:39;;;;;;;25.10;13.80;;;;;;;;;;4967421;28;20034;-80
2022/12/25 09:04:05;;;;;;;24.48;13.20;;;;;;;;;;4984810;28;20368;-79
2022/12/25 09:06:31;;;;;;;29.25;13.07;;;;;;;;;;4981272;28;20125;-79
2022/12/25 09:08:57;;;;;;;27.23;12.73;;;;;;;;;;4998670;28;20403;-80
2022/12/25 09:11:24;;;;;;;24.33;12.35;;;;;;;;;;4982538;28;20499;-80
2022/12/25 09:13:50;;;;;;;23.25;12.98;;;;;;;;;;4996671;28;20113;-80
2022/12/25 09:16:18;;;;;;;22.45;12.60;;;;;;;;;;4977259;28;20038;-79
2022/12/25 09:18:44;;;;;;;25.38;13.27;;;;;;;;;;4997682;28;20321;-79
2022/12/25 09:21:12;;;;;;;22.88;12.20;;;;;;;;;;4998681;28;20034;-79
2022/12/25 09:23:38;;;;;;;40.80;25.23;;;;;;;;;;4983309;28;20522;-80
2022/12/25 09:26:05;;;;;;;90.57;51.60;;;;;;;;;;4977051;28;20487;-79
2022/12/25 09:28:32;;;;;;;95.97;63.38;;;;;;;;;;4985729;28;20391;-79
2022/12/25 09:30:58;;;;;;;38.38;24.65;;;;;;;;;;4969366;28;20554;-80
2022/12/25 09:33:24;;;;;;;31.65;18.42;;;;;;;;;;4981326;28;20041;-80
2022/12/25 09:35:54;;;;;;;31.35;16.23;;;;;;;;;;4988944;28;20026;-79
2022/12/25 09:38:20;;;;;;;27.20;13.48;;;;;;;;;;4998973;28;20073;-79
2022/12/25 09:40:46;;;;;;;30.73;14.88;;;;;;;;;;4984865;28;20038;-79
2022/12/25 09:43:15;;;;;;;29.13;13.70;;;;;;;;;;4964751;28;20038;-81
2022/12/25 09:45:42;;;;;;;26.52;12.48;;;;;;;;;;4986098;28;20424;-80
2022/12/25 09:48:11;;;;;;;26.33;13.63;;;;;;;;;;4999362;28;20050;-81
2022/12/25 09:50:47;;;;;;;28.40;14.13;;;;;;;;;;4999583;28;20345;-80
2022/12/25 09:53:32;;;;;;;31.98;14.60;;;;;;;;;;4984048;28;20038;-80
2022/12/25 09:56:06;;;;;;;25.92;13.15;;;;;;;;;;4999077;28;20396;-80
2022/12/25 09:58:35;;;;;;;29.17;13.65;;;;;;;;;;4984039;28;20434;-81
2022/12/25 10:01:05;;;;;;;32.33;14.38;;;;;;;;;;4979834;28;20387;-80
2022/12/25 10:03:52;;;;;;;28.38;15.52;;;;;;;;;;4986744;28;20105;-79
2022/12/25 10:06:18;;;;;;;30.75;15.60;;;;;;;;;;4985454;28;20069;-80
2022/12/25 10:08:57;;;;;;;32.88;14.50;;;;;;;;;;4986147;28;20356;-81
2022/12/25 10:11:42;;;;;;;32.35;14.65;;;;;;;;;;4985683;28;20089;-81
2022/12/25 10:14:15;;;;;;;37.25;15.40;;;;;;;;;;4977979;28;20032;-81
2022/12/25 10:17:00;;;;;;;27.40;14.93;;;;;;;;;;4990047;28;20427;-81
2022/12/25 10:19:39;;;;;;;25.13;14.18;;;;;;;;;;4986926;28;20026;-82
2022/12/25 10:22:09;;;;;;;35.45;14.93;;;;;;;;;;5001228;28;20030;-82
2022/12/25 10:24:38;;;;;;;33.05;15.52;;;;;;;;;;4981826;28;20144;-83
2022/12/25 10:27:13;;;;;;;32.15;15.40;;;;;;;;;;4985968;28;20117;-80
2022/12/25 10:29:39;;;;;;;28.27;15.57;;;;;;;;;;4982254;28;21700;-81
2022/12/25 10:32:05;;;;;;;32.00;15.35;;;;;;;;;;4985222;28;20566;-82
2022/12/25 10:34:32;;;;;;;27.33;15.00;;;;;;;;;;4987071;28;20041;-82
2022/12/25 10:36:58;;;;;;;30.20;15.07;;;;;;;;;;4986868;28;20038;-81
2022/12/25 10:39:25;;;;;;;33.53;16.33;;;;;;;;;;4984056;28;20026;-82
2022/12/25 10:42:04;;;;;;;27.13;14.60;;;;;;;;;;4987602;28;20128;-82
2022/12/25 10:44:32;;;;;;;28.48;14.93;;;;;;;;;;4985919;28;20385;-84
2022/12/25 10:46:59;;;;;;;31.58;15.38;;;;;;;;;;4987012;28;20034;-81
2022/12/25 10:49:30;;;;;;;32.40;15.77;;;;;;;;;;4972598;28;20041;-82
2022/12/25 10:51:56;;;;;;;32.72;16.08;;;;;;;;;;4972398;28;20092;-82
2022/12/25 10:54:27;;;;;;;39.05;17.23;;;;;;;;;;4970046;28;20217;-81
2022/12/25 10:56:53;;;;;;;32.17;16.17;;;;;;;;;;4985486;28;20053;-81
2022/12/25 10:59:19;;;;;;;31.63;16.75;;;;;;;;;;4987662;28;20022;-84
2022/12/25 11:01:45;;;;;;;36.35;19.15;;;;;;;;;;4997425;28;20631;-81
2022/12/25 11:04:22;;;;;;;36.72;16.92;;;;;;;;;;4984816;28;20030;-83
2022/12/25 11:06:57;;;;;;;31.33;15.98;;;;;;;;;;4986951;28;20122;-82
2022/12/25 11:09:23;;;;;;;32.95;17.13;;;;;;;;;;5002123;28;20030;-83
2022/12/25 11:11:49;;;;;;;34.42;16.92;;;;;;;;;;4986457;28;20117;-81
2022/12/25 11:14:18;;;;;;;29.98;16.20;;;;;;;;;;4982240;28;20035;-83
2022/12/25 11:16:44;;;;;;;30.65;16.67;;;;;;;;;;4988160;28;20523;-81
2022/12/25 11:19:23;;;;;;;33.83;16.60;;;;;;;;;;4989177;28;20052;-81
2022/12/25 11:21:53;;;;;;;33.72;14.70;;;;;;;;;;4987794;28;20022;-82
2022/12/25 11:24:21;;;;;;;33.10;17.27;;;;;;;;;;4987644;28;20027;-82
2022/12/25 11:26:49;;;;;;;32.15;17.73;;;;;;;;;;4999656;28;20038;-82
2022/12/25 11:29:24;;;;;;;36.72;19.13;;;;;;;;;;4982266;28;20491;-83
2022/12/25 11:31:50;;;;;;;37.60;21.80;;;;;;;;;;4994833;28;20033;-82
2022/12/25 11:34:34;;;;;;;58.90;31.25;;;;;;;;;;4978924;28;20031;-83
2022/12/25 11:37:02;;;;;;;97.78;48.42;;;;;;;;;;4983818;28;20041;-82
2022/12/25 11:39:32;;;;;;;68.65;34.03;;;;;;;;;;4987697;28;20045;-82
2022/12/25 11:42:07;;;;;;;45.72;22.63;;;;;;;;;;4981566;28;20220;-82
2022/12/25 11:44:36;;;;;;;41.50;21.20;;;;;;;;;;4988617;28;20034;-82
2022/12/25 11:47:11;;;;;;;35.17;20.80;;;;;;;;;;4986832;28;20472;-82
2022/12/25 11:49:41;;;;;;;27.30;17.05;;;;;;;;;;4988049;28;20835;-81
2022/12/25 11:52:10;;;;;;;36.00;17.98;;;;;;;;;;4986664;28;20515;-83
2022/12/25 11:54:41;;;;;;;37.17;17.45;;;;;;;;;;4985677;28;20117;-83
2022/12/25 11:57:11;;;;;;;36.83;18.05;;;;;;;;;;4987270;28;20092;-82
2022/12/25 11:59:43;;;;;;;36.35;18.42;;;;;;;;;;4983858;28;20031;-81
2022/12/25 12:02:21;;;;;;;38.35;18.45;;;;;;;;;;4984855;28;20555;-82
2022/12/25 12:04:50;;;;;;;31.60;17.10;;;;;;;;;;5002917;28;20447;-82
2022/12/25 12:07:27;;;;;;;35.42;18.05;;;;;;;;;;4987060;28;21027;-87
2022/12/25 12:09:53;;;;;;;39.58;19.02;;;;;;;;;;4981167;28;20033;-82
2022/12/25 12:12:21;;;;;;;38.28;20.50;;;;;;;;;;4983804;28;20026;-83
2022/12/25 12:14:48;;;;;;;40.13;21.92;;;;;;;;;;4985819;28;20077;-82
2022/12/25 12:17:15;;;;;;;42.90;21.48;;;;;;;;;;4980376;28;20058;-82
2022/12/25 12:19:41;;;;;;;42.47;21.90;;;;;;;;;;4981911;28;20027;-82
2022/12/25 12:22:23;;;;;;;35.35;20.40;;;;;;;;;;4985346;28;20449;-82
2022/12/25 12:25:03;;;;;;;36.35;20.25;;;;;;;;;;4992450;28;20034;-82
2022/12/25 12:27:29;;;;;;;36.50;21.52;;;;;;;;;;4983555;28;20026;-82
2022/12/25 12:29:56;;;;;;;39.10;21.20;;;;;;;;;;4987927;28;20041;-82
2022/12/25 12:32:35;;;;;;;33.90;21.75;;;;;;;;;;4983562;28;20384;-82
2022/12/25 12:35:09;;;;;;;41.13;22.08;;;;;;;;;;4981309;28;20925;-82
2022/12/25 12:37:37;;;;;;;38.30;20.80;;;;;;;;;;5000482;28;20122;-82
2022/12/25 12:40:04;;;;;;;38.10;21.70;;;;;;;;;;4985509;28;20027;-82
2022/12/25 12:42:32;;;;;;;34.42;20.38;;;;;;;;;;4983599;28;20049;-81
2022/12/25 12:45:07;;;;;;;35.95;20.83;;;;;;;;;;4985401;28;20038;-83
2022/12/25 12:47:36;;;;;;;38.03;21.75;;;;;;;;;;4980255;28;20034;-83
2022/12/25 12:50:03;;;;;;;36.35;20.65;;;;;;;;;;4982967;28;20030;-82
2022/12/25 12:52:31;;;;;;;42.92;21.67;;;;;;;;;;5003135;28;20034;-82
2022/12/25 12:55:02;;;;;;;32.08;20.27;;;;;;;;;;4984666;28;20517;-83
2022/12/25 12:57:31;;;;;;;39.63;21.45;;;;;;;;;;4984833;28;20034;-83
2022/12/25 12:59:58;;;;;;;45.55;22.58;;;;;;;;;;4987024;28;20038;-82
2022/12/25 13:02:45;;;;;;;40.85;22.92;;;;;;;;;;4983878;28;20031;-83
2022/12/25 13:05:29;;;;;;;40.15;23.65;;;;;;;;;;4986558;28;20424;-82
2022/12/25 13:08:01;;;;;;;42.17;22.85;;;;;;;;;;4985190;28;20034;-82
2022/12/25 13:10:30;;;;;;;45.33;24.50;;;;;;;;;;4983616;28;20033;-83
2022/12/25 13:13:01;;;;;;;47.50;27.17;;;;;;;;;;4994400;28;20100;-83
2022/12/25 13:15:29;;;;;;;51.13;28.63;;;;;;;;;;4988005;28;20027;-82
2022/12/25 13:17:57;;;;;;;46.90;24.75;;;;;;;;;;4981388;28;20023;-83
2022/12/25 13:20:29;;;;;;;47.90;25.75;;;;;;;;;;4978681;28;20141;-82
2022/12/25 13:22:55;;;;;;;51.45;26.38;;;;;;;;;;4984194;28;20089;-82
2022/12/25 13:25:22;;;;;;;46.67;23.48;;;;;;;;;;4989243;28;20034;-83
2022/12/25 13:27:56;;;;;;;43.85;24.50;;;;;;;;;;4982566;28;20022;-81
2022/12/25 13:30:22;;;;;;;49.33;24.85;;;;;;;;;;4992155;28;20038;-80
2022/12/25 13:32:48;;;;;;;45.50;24.65;;;;;;;;;;4999953;28;20031;-82
2022/12/25 13:35:15;;;;;;;45.65;23.95;;;;;;;;;;5004989;28;20041;-84
2022/12/25 13:37:42;;;;;;;44.42;23.77;;;;;;;;;;4995639;28;20038;-82
2022/12/25 13:40:19;;;;;;;48.78;26.42;;;;;;;;;;4992914;28;20438;-82
2022/12/25 13:42:45;;;;;;;51.05;25.95;;;;;;;;;;4990412;28;20034;-80
2022/12/25 13:45:11;;;;;;;45.30;26.67;;;;;;;;;;5006974;28;20061;-82
2022/12/25 13:47:39;;;;;;;42.63;25.00;;;;;;;;;;4999887;28;20031;-81
2022/12/25 13:50:34;;;;;;;45.83;26.55;;;;;;;;;;5004553;28;20035;-80
2022/12/25 13:53:10;;;;;;;46.25;24.65;;;;;;;;;;4982400;28;20042;-82
2022/12/25 13:55:37;;;;;;;41.60;24.08;;;;;;;;;;4994297;28;21233;-83
2022/12/25 13:58:05;;;;;;;49.00;25.98;;;;;;;;;;5002288;28;21371;-82
2022/12/25 14:00:39;;;;;;;53.30;26.13;;;;;;;;;;4990650;28;20113;-82
2022/12/25 14:03:06;;;;;;;56.03;26.80;;;;;;;;;;4988523;28;20644;-83
2022/12/25 14:05:34;;;;;;;50.13;25.67;;;;;;;;;;4997368;28;20030;-82
2022/12/25 14:08:03;;;;;;;48.67;25.90;;;;;;;;;;4986518;28;20030;-83
2022/12/25 14:10:33;;;;;;;54.50;28.52;;;;;;;;;;4992017;28;20073;-83
2022/12/25 14:13:04;;;;;;;52.92;27.20;;;;;;;;;;4989903;28;20034;-83
2022/12/25 14:15:31;;;;;;;45.20;26.27;;;;;;;;;;4977875;28;20034;-90
2022/12/25 14:17:58;;;;;;;46.80;26.40;;;;;;;;;;4990246;28;20117;-83
2022/12/25 14:20:40;;;;;;;55.10;27.27;;;;;;;;;;4986261;28;20086;-84
2022/12/25 14:23:06;;;;;;;55.40;27.55;;;;;;;;;;4981452;28;20113;-84
2022/12/25 14:25:51;;;;;;;55.22;28.02;;;;;;;;;;4989169;28;20168;-84
2022/12/25 14:28:19;;;;;;;56.55;30.00;;;;;;;;;;4982859;28;20038;-85
2022/12/25 14:30:45;;;;;;;61.95;31.50;;;;;;;;;;4988381;28;20092;-83
2022/12/25 14:33:20;;;;;;;59.40;30.92;;;;;;;;;;4990844;28;20228;-83
2022/12/25 14:35:47;;;;;;;56.28;30.25;;;;;;;;;;4985745;28;20023;-83
2022/12/25 14:38:22;;;;;;;61.15;33.75;;;;;;;;;;4976327;28;20026;-83
2022/12/25 14:40:57;;;;;;;67.50;34.28;;;;;;;;;;4979518;28;20484;-83
2022/12/25 14:43:25;;;;;;;62.53;31.88;;;;;;;;;;4984354;28;20037;-84
2022/12/25 14:45:56;;;;;;;61.38;33.45;;;;;;;;;;4988718;28;20052;-84
2022/12/25 14:48:23;;;;;;;67.82;32.90;;;;;;;;;;4986391;28;20113;-83
2022/12/25 14:50:56;;;;;;;62.05;32.40;;;;;;;;;;4986867;28;20451;-84
2022/12/25 14:53:23;;;;;;;80.50;34.55;;;;;;;;;;4990348;28;20060;-83
2022/12/25 14:55:53;;;;;;;64.43;31.20;;;;;;;;;;4963866;28;20376;-84
2022/12/25 14:58:24;;;;;;;65.00;32.75;;;;;;;;;;4987450;28;20415;-87
2022/12/25 15:00:50;;;;;;;;;;;;;;;;;;4986829;28;20041;-81
2022/12/25 15:03:20;;;;;;;66.20;32.25;;;;;;;;;;4989926;28;19909;-83
2022/12/25 15:05:56;;;;;;;64.75;33.70;;;;;;;;;;4989839;28;20114;-83
2022/12/25 15:08:23;;;;;;;75.28;33.85;;;;;;;;;;5005159;28;20038;-83
2022/12/25 15:10:50;;;;;;;72.00;33.00;;;;;;;;;;4993833;28;20061;-84
2022/12/25 15:13:19;;;;;;;65.72;33.22;;;;;;;;;;4957126;28;20510;-84
2022/12/25 15:15:53;;;;;;;69.47;34.72;;;;;;;;;;4989105;28;20038;-84
2022/12/25 15:18:21;;;;;;;69.40;35.00;;;;;;;;;;4991281;28;20549;-88
2022/12/25 15:20:51;;;;;;;69.32;33.20;;;;;;;;;;4986863;28;20373;-84
2022/12/25 15:23:17;;;;;;;69.93;32.25;;;;;;;;;;4969510;28;20165;-82
2022/12/25 15:25:43;;;;;;;61.58;32.20;;;;;;;;;;4989291;28;20447;-83
2022/12/25 15:28:10;;;;;;;69.53;34.83;;;;;;;;;;4987940;28;20129;-83
2022/12/25 15:30:38;;;;;;;62.88;32.40;;;;;;;;;;4988880;28;20096;-82
2022/12/25 15:33:05;;;;;;;71.45;41.00;;;;;;;;;;4989413;28;20117;-84
2022/12/25 15:35:32;;;;;;;83.57;46.90;;;;;;;;;;4986578;28;20030;-83
2022/12/25 15:37:58;;;;;;;91.07;47.80;;;;;;;;;;4987636;28;20443;-83
2022/12/25 15:40:25;;;;;;;256.00;50.20;;;;;;;;;;4988140;28;20106;-83
2022/12/25 15:42:51;;;;;;;68.35;37.13;;;;;;;;;;4960892;28;20037;-83
2022/12/25 15:45:24;;;;;;;520.60;66.53;;;;;;;;;;4984279;28;20543;-83
2022/12/25 15:47:51;;;;;;;118.65;40.08;;;;;;;;;;4967102;28;20057;-82
2022/12/25 15:50:18;;;;;;;84.82;40.80;;;;;;;;;;4988769;28;20395;-84
2022/12/25 15:52:44;;;;;;;102.45;42.67;;;;;;;;;;4985899;28;20049;-83
2022/12/25 15:55:10;;;;;;;93.47;38.97;;;;;;;;;;5002296;28;20633;-83
2022/12/25 15:57:39;;;;;;;87.13;39.38;;;;;;;;;;4986592;28;20045;-84
2022/12/25 16:00:07;;;;;;;72.18;38.05;;;;;;;;;;4978808;28;20019;-83
2022/12/25 16:02:37;;;;;;;80.78;39.70;;;;;;;;;;4998463;28;20136;-83
2022/12/25 16:05:04;;;;;;;78.25;38.55;;;;;;;;;;5003872;28;20026;-83